sensor_id;sensor_type;location;lat;lon;timestamp;temperature;humidity
9699;DHT22;10089;47.876;8.346;2023-02-04T00:01:51;2.90;99.90
9699;DHT22;10089;47.876;8.346;2023-02-04T00:04:17;3.30;99.90
9699;DHT22;10089;47.876;8.346;2023-02-04T00:06:42;2.90;99.90
9699;DHT22;10089;47.876;8.346;2023-02-04T00:09:08;3.00;99.90
9699;DHT22;10089;47.876;8.346;2023-02-04T00:11:34;2.90;99.90
9699;DHT22;10089;47.876;8.346;2023-02-04T00:13:59;3.60;99.90
9699;DHT22;10089;47.876;8.346;2023-02-04T00:16:25;2.80;99.90
9699;DHT22;10089;47.876;8.346;2023-02-04T00:18:51;2.90;99.90
9699;DHT22;10089;47.876;8.346;2023-02-04T00:21:16;2.80;99.90
9699;DHT22;10089;47.876;8.346;2023-02-04T00:23:42;3.30;99.90
9699;DHT22;10089;47.876;8.346;2023-02-04T00:26:08;3.40;99.90
9699;DHT22;10089;47.876;8.346;2023-02-04T00:28:33;3.30;99.90
9699;DHT22;10089;47.876;8.346;2023-02-04T00:30:59;4.30;99.90
9699;DHT22;10089;47.876;8.346;2023-02-04T00:33:24;3.70;99.90
9699;DHT22;10089;47.876;8.346;2023-02-04T00:35:50;3.30;99.90
9699;DHT22;10089;47.876;8.346;2023-02-04T00:38:16;3.10;99.90
9699;DHT22;10089;47.876;8.346;2023-02-04T00:40:42;2.80;99.90
9699;DHT22;10089;47.876;8.346;2023-02-04T00:43:07;3.70;99.90
9699;DHT22;10089;47.876;8.346;2023-02-04T00:45:33;2.90;99.90
9699;DHT22;10089;47.876;8.346;2023-02-04T00:47:59;3.80;99.90
9699;DHT22;10089;47.876;8.346;2023-02-04T00:50:24;2.80;99.90
9699;DHT22;10089;47.876;8.346;2023-02-04T00:52:50;3.50;99.90
9699;DHT22;10089;47.876;8.346;2023-02-04T00:55:17;3.40;99.90
9699;DHT22;10089;47.876;8.346;2023-02-04T00:57:43;2.90;99.90
9699;DHT22;10089;47.876;8.346;2023-02-04T01:00:12;3.50;99.90
9699;DHT22;10089;47.876;8.346;2023-02-04T01:02:39;2.90;99.90
9699;DHT22;10089;47.876;8.346;2023-02-04T01:05:06;3.20;99.90
9699;DHT22;10089;47.876;8.346;2023-02-04T01:07:32;2.90;99.90
9699;DHT22;10089;47.876;8.346;2023-02-04T01:09:58;3.00;99.90
9699;DHT22;10089;47.876;8.346;2023-02-04T01:12:23;3.00;99.90
9699;DHT22;10089;47.876;8.346;2023-02-04T01:14:52;2.70;99.90
9699;DHT22;10089;47.876;8.346;2023-02-04T01:17:18;2.40;99.90
9699;DHT22;10089;47.876;8.346;2023-02-04T01:19:44;4.10;99.90
9699;DHT22;10089;47.876;8.346;2023-02-04T01:22:10;2.80;99.90
9699;DHT22;10089;47.876;8.346;2023-02-04T01:24:36;2.90;99.90
9699;DHT22;10089;47.876;8.346;2023-02-04T01:27:02;2.30;99.90
9699;DHT22;10089;47.876;8.346;2023-02-04T01:29:27;2.40;99.90
9699;DHT22;10089;47.876;8.346;2023-02-04T01:31:53;3.50;99.90
9699;DHT22;10089;47.876;8.346;2023-02-04T01:34:19;2.90;99.90
9699;DHT22;10089;47.876;8.346;2023-02-04T01:36:44;2.30;99.90
9699;DHT22;10089;47.876;8.346;2023-02-04T01:39:10;3.20;99.90
9699;DHT22;10089;47.876;8.346;2023-02-04T01:41:35;2.40;99.90
9699;DHT22;10089;47.876;8.346;2023-02-04T01:44:01;2.70;99.90
9699;DHT22;10089;47.876;8.346;2023-02-04T01:46:27;2.10;99.90
9699;DHT22;10089;47.876;8.346;2023-02-04T01:48:53;3.10;99.90
9699;DHT22;10089;47.876;8.346;2023-02-04T01:51:24;3.20;99.90
9699;DHT22;10089;47.876;8.346;2023-02-04T01:53:52;3.20;99.90
9699;DHT22;10089;47.876;8.346;2023-02-04T01:56:21;3.70;99.90
9699;DHT22;10089;47.876;8.346;2023-02-04T01:58:48;3.40;99.90
9699;DHT22;10089;47.876;8.346;2023-02-04T02:03:58;2.40;99.90
9699;DHT22;10089;47.876;8.346;2023-02-04T02:06:24;2.20;99.90
9699;DHT22;10089;47.876;8.346;2023-02-04T02:08:50;4.20;99.90
9699;DHT22;10089;47.876;8.346;2023-02-04T02:11:15;2.90;99.90
9699;DHT22;10089;47.876;8.346;2023-02-04T02:13:41;2.80;99.90
9699;DHT22;10089;47.876;8.346;2023-02-04T02:16:07;2.40;99.90
9699;DHT22;10089;47.876;8.346;2023-02-04T02:18:33;2.10;99.90
9699;DHT22;10089;47.876;8.346;2023-02-04T02:20:59;3.50;99.90
9699;DHT22;10089;47.876;8.346;2023-02-04T02:23:53;2.60;99.90
9699;DHT22;10089;47.876;8.346;2023-02-04T02:26:21;2.20;99.90
9699;DHT22;10089;47.876;8.346;2023-02-04T02:28:48;3.00;99.90
9699;DHT22;10089;47.876;8.346;2023-02-04T02:31:15;2.90;99.90
9699;DHT22;10089;47.876;8.346;2023-02-04T02:33:42;2.20;99.90
9699;DHT22;10089;47.876;8.346;2023-02-04T02:36:09;3.60;99.90
9699;DHT22;10089;47.876;8.346;2023-02-04T02:38:35;2.70;99.90
9699;DHT22;10089;47.876;8.346;2023-02-04T02:41:01;2.30;99.90
9699;DHT22;10089;47.876;8.346;2023-02-04T02:43:27;2.50;99.90
9699;DHT22;10089;47.876;8.346;2023-02-04T02:45:58;2.20;99.90
9699;DHT22;10089;47.876;8.346;2023-02-04T02:48:25;2.30;99.90
9699;DHT22;10089;47.876;8.346;2023-02-04T02:50:51;2.70;99.90
9699;DHT22;10089;47.876;8.346;2023-02-04T02:53:18;2.40;99.90
9699;DHT22;10089;47.876;8.346;2023-02-04T02:55:45;2.50;99.90
9699;DHT22;10089;47.876;8.346;2023-02-04T02:58:28;2.60;99.90
9699;DHT22;10089;47.876;8.346;2023-02-04T03:00:56;2.30;99.90
9699;DHT22;10089;47.876;8.346;2023-02-04T03:03:32;3.10;99.90
9699;DHT22;10089;47.876;8.346;2023-02-04T03:06:08;2.30;99.90
9699;DHT22;10089;47.876;8.346;2023-02-04T03:08:35;2.50;99.90
9699;DHT22;10089;47.876;8.346;2023-02-04T03:11:01;3.00;99.90
9699;DHT22;10089;47.876;8.346;2023-02-04T03:13:27;2.80;99.90
9699;DHT22;10089;47.876;8.346;2023-02-04T03:15:53;3.00;99.90
9699;DHT22;10089;47.876;8.346;2023-02-04T03:18:20;2.80;99.90
9699;DHT22;10089;47.876;8.346;2023-02-04T03:20:47;2.70;99.90
9699;DHT22;10089;47.876;8.346;2023-02-04T03:23:13;3.00;99.90
9699;DHT22;10089;47.876;8.346;2023-02-04T03:25:39;2.90;99.90
9699;DHT22;10089;47.876;8.346;2023-02-04T03:28:04;3.50;99.90
9699;DHT22;10089;47.876;8.346;2023-02-04T03:30:31;2.80;99.90
9699;DHT22;10089;47.876;8.346;2023-02-04T03:32:56;2.70;99.90
9699;DHT22;10089;47.876;8.346;2023-02-04T03:35:22;3.00;99.90
9699;DHT22;10089;47.876;8.346;2023-02-04T03:37:48;2.70;99.90
9699;DHT22;10089;47.876;8.346;2023-02-04T03:40:14;3.00;99.90
9699;DHT22;10089;47.876;8.346;2023-02-04T03:42:40;2.70;99.90
9699;DHT22;10089;47.876;8.346;2023-02-04T03:45:06;3.00;99.90
9699;DHT22;10089;47.876;8.346;2023-02-04T03:47:31;2.80;99.90
9699;DHT22;10089;47.876;8.346;2023-02-04T03:49:57;2.90;99.90
9699;DHT22;10089;47.876;8.346;2023-02-04T03:52:23;2.80;99.90
9699;DHT22;10089;47.876;8.346;2023-02-04T03:54:51;3.30;99.90
9699;DHT22;10089;47.876;8.346;2023-02-04T03:57:16;3.20;99.90
9699;DHT22;10089;47.876;8.346;2023-02-04T03:59:42;3.10;99.90
9699;DHT22;10089;47.876;8.346;2023-02-04T04:02:10;2.80;99.90
9699;DHT22;10089;47.876;8.346;2023-02-04T04:04:35;2.90;99.90
9699;DHT22;10089;47.876;8.346;2023-02-04T04:07:01;3.00;99.90
9699;DHT22;10089;47.876;8.346;2023-02-04T04:09:27;3.00;99.90
9699;DHT22;10089;47.876;8.346;2023-02-04T04:11:54;2.80;99.90
9699;DHT22;10089;47.876;8.346;2023-02-04T04:14:19;2.90;99.90
9699;DHT22;10089;47.876;8.346;2023-02-04T04:16:45;3.40;99.90
9699;DHT22;10089;47.876;8.346;2023-02-04T04:19:11;2.80;99.90
9699;DHT22;10089;47.876;8.346;2023-02-04T04:21:36;3.10;99.90
9699;DHT22;10089;47.876;8.346;2023-02-04T04:24:02;2.80;99.90
9699;DHT22;10089;47.876;8.346;2023-02-04T04:26:28;2.90;99.90
9699;DHT22;10089;47.876;8.346;2023-02-04T04:28:53;3.10;99.90
9699;DHT22;10089;47.876;8.346;2023-02-04T04:31:19;2.90;99.90
9699;DHT22;10089;47.876;8.346;2023-02-04T04:33:45;3.00;99.90
9699;DHT22;10089;47.876;8.346;2023-02-04T04:36:10;2.90;99.90
9699;DHT22;10089;47.876;8.346;2023-02-04T04:38:36;3.20;99.90
9699;DHT22;10089;47.876;8.346;2023-02-04T04:41:02;2.90;99.90
9699;DHT22;10089;47.876;8.346;2023-02-04T04:43:27;2.90;99.90
9699;DHT22;10089;47.876;8.346;2023-02-04T04:45:53;2.90;99.90
9699;DHT22;10089;47.876;8.346;2023-02-04T04:48:18;2.90;99.90
9699;DHT22;10089;47.876;8.346;2023-02-04T04:50:46;3.50;99.90
9699;DHT22;10089;47.876;8.346;2023-02-04T04:53:11;3.30;99.90
9699;DHT22;10089;47.876;8.346;2023-02-04T04:55:37;3.20;99.90
9699;DHT22;10089;47.876;8.346;2023-02-04T04:58:04;3.00;99.90
9699;DHT22;10089;47.876;8.346;2023-02-04T05:00:30;3.10;99.90
9699;DHT22;10089;47.876;8.346;2023-02-04T05:02:56;2.90;99.90
9699;DHT22;10089;47.876;8.346;2023-02-04T05:05:21;3.00;99.90
9699;DHT22;10089;47.876;8.346;2023-02-04T05:07:47;3.00;99.90
9699;DHT22;10089;47.876;8.346;2023-02-04T05:10:13;2.90;99.90
9699;DHT22;10089;47.876;8.346;2023-02-04T05:12:38;3.30;99.90
9699;DHT22;10089;47.876;8.346;2023-02-04T05:15:05;2.80;99.90
9699;DHT22;10089;47.876;8.346;2023-02-04T05:17:31;2.90;99.90
9699;DHT22;10089;47.876;8.346;2023-02-04T05:19:57;3.00;99.90
9699;DHT22;10089;47.876;8.346;2023-02-04T05:22:24;3.20;99.90
9699;DHT22;10089;47.876;8.346;2023-02-04T05:24:50;2.90;99.90
9699;DHT22;10089;47.876;8.346;2023-02-04T05:27:16;2.90;99.90
9699;DHT22;10089;47.876;8.346;2023-02-04T05:29:41;2.90;99.90
9699;DHT22;10089;47.876;8.346;2023-02-04T05:32:07;3.00;99.90
9699;DHT22;10089;47.876;8.346;2023-02-04T05:34:33;3.00;99.90
9699;DHT22;10089;47.876;8.346;2023-02-04T05:36:58;3.10;99.90
9699;DHT22;10089;47.876;8.346;2023-02-04T05:39:24;2.80;99.90
9699;DHT22;10089;47.876;8.346;2023-02-04T05:41:50;3.00;99.90
9699;DHT22;10089;47.876;8.346;2023-02-04T05:44:15;2.90;99.90
9699;DHT22;10089;47.876;8.346;2023-02-04T05:46:41;2.90;99.90
9699;DHT22;10089;47.876;8.346;2023-02-04T05:49:06;3.70;99.90
9699;DHT22;10089;47.876;8.346;2023-02-04T05:51:32;3.10;99.90
9699;DHT22;10089;47.876;8.346;2023-02-04T05:53:58;3.40;99.90
9699;DHT22;10089;47.876;8.346;2023-02-04T05:56:24;2.90;99.90
9699;DHT22;10089;47.876;8.346;2023-02-04T05:58:50;3.20;99.90
9699;DHT22;10089;47.876;8.346;2023-02-04T06:01:16;3.40;99.90
9699;DHT22;10089;47.876;8.346;2023-02-04T06:03:42;3.20;99.90
9699;DHT22;10089;47.876;8.346;2023-02-04T06:06:07;3.50;99.90
9699;DHT22;10089;47.876;8.346;2023-02-04T06:08:33;2.80;99.90
9699;DHT22;10089;47.876;8.346;2023-02-04T06:10:59;3.30;99.90
9699;DHT22;10089;47.876;8.346;2023-02-04T06:13:24;3.30;99.90
9699;DHT22;10089;47.876;8.346;2023-02-04T06:15:50;2.80;99.90
9699;DHT22;10089;47.876;8.346;2023-02-04T06:18:15;2.80;99.90
9699;DHT22;10089;47.876;8.346;2023-02-04T06:20:41;2.90;99.90
9699;DHT22;10089;47.876;8.346;2023-02-04T06:23:07;3.20;99.90
9699;DHT22;10089;47.876;8.346;2023-02-04T06:25:32;3.50;99.90
9699;DHT22;10089;47.876;8.346;2023-02-04T06:27:58;2.80;99.90
9699;DHT22;10089;47.876;8.346;2023-02-04T06:30:24;2.90;99.90
9699;DHT22;10089;47.876;8.346;2023-02-04T06:32:49;3.10;99.90
9699;DHT22;10089;47.876;8.346;2023-02-04T06:35:17;2.90;99.90
9699;DHT22;10089;47.876;8.346;2023-02-04T06:37:43;3.40;99.90
9699;DHT22;10089;47.876;8.346;2023-02-04T06:40:11;2.80;99.90
9699;DHT22;10089;47.876;8.346;2023-02-04T06:42:37;2.90;99.90
9699;DHT22;10089;47.876;8.346;2023-02-04T06:45:03;3.50;99.90
9699;DHT22;10089;47.876;8.346;2023-02-04T06:47:29;2.90;99.90
9699;DHT22;10089;47.876;8.346;2023-02-04T06:49:55;3.20;99.90
9699;DHT22;10089;47.876;8.346;2023-02-04T06:52:20;3.40;99.90
9699;DHT22;10089;47.876;8.346;2023-02-04T06:54:46;3.50;99.90
9699;DHT22;10089;47.876;8.346;2023-02-04T06:57:11;2.90;99.90
9699;DHT22;10089;47.876;8.346;2023-02-04T06:59:39;2.80;99.90
9699;DHT22;10089;47.876;8.346;2023-02-04T07:02:06;2.70;99.90
9699;DHT22;10089;47.876;8.346;2023-02-04T07:04:32;2.90;99.90
9699;DHT22;10089;47.876;8.346;2023-02-04T07:06:58;2.70;99.90
9699;DHT22;10089;47.876;8.346;2023-02-04T07:09:24;2.90;99.90
9699;DHT22;10089;47.876;8.346;2023-02-04T07:11:50;2.90;99.90
9699;DHT22;10089;47.876;8.346;2023-02-04T07:14:16;2.80;99.90
9699;DHT22;10089;47.876;8.346;2023-02-04T07:16:43;2.90;99.90
9699;DHT22;10089;47.876;8.346;2023-02-04T07:19:08;2.80;99.90
9699;DHT22;10089;47.876;8.346;2023-02-04T07:21:41;3.10;99.90
9699;DHT22;10089;47.876;8.346;2023-02-04T07:24:07;3.00;99.90
9699;DHT22;10089;47.876;8.346;2023-02-04T07:26:33;3.20;99.90
9699;DHT22;10089;47.876;8.346;2023-02-04T07:28:59;3.60;99.90
9699;DHT22;10089;47.876;8.346;2023-02-04T07:31:24;3.20;99.90
9699;DHT22;10089;47.876;8.346;2023-02-04T07:33:50;3.50;99.90
9699;DHT22;10089;47.876;8.346;2023-02-04T07:36:15;2.80;99.90
9699;DHT22;10089;47.876;8.346;2023-02-04T07:38:43;2.90;99.90
9699;DHT22;10089;47.876;8.346;2023-02-04T07:41:09;3.50;99.90
9699;DHT22;10089;47.876;8.346;2023-02-04T07:43:34;3.00;99.90
9699;DHT22;10089;47.876;8.346;2023-02-04T07:46:00;3.50;99.90
9699;DHT22;10089;47.876;8.346;2023-02-04T07:48:26;3.20;99.90
9699;DHT22;10089;47.876;8.346;2023-02-04T07:50:51;3.60;99.90
9699;DHT22;10089;47.876;8.346;2023-02-04T07:53:17;2.90;99.90
9699;DHT22;10089;47.876;8.346;2023-02-04T07:55:43;4.00;99.90
9699;DHT22;10089;47.876;8.346;2023-02-04T07:58:09;2.90;99.90
9699;DHT22;10089;47.876;8.346;2023-02-04T08:00:36;2.80;99.90
9699;DHT22;10089;47.876;8.346;2023-02-04T08:03:02;3.00;99.90
9699;DHT22;10089;47.876;8.346;2023-02-04T08:05:28;3.00;99.90
9699;DHT22;10089;47.876;8.346;2023-02-04T08:07:54;3.20;99.90
9699;DHT22;10089;47.876;8.346;2023-02-04T08:10:20;3.10;99.90
9699;DHT22;10089;47.876;8.346;2023-02-04T08:12:46;3.10;99.90
9699;DHT22;10089;47.876;8.346;2023-02-04T08:15:14;3.40;99.90
9699;DHT22;10089;47.876;8.346;2023-02-04T08:17:39;3.20;99.90
9699;DHT22;10089;47.876;8.346;2023-02-04T08:20:05;3.30;99.90
9699;DHT22;10089;47.876;8.346;2023-02-04T08:22:31;3.30;99.90
9699;DHT22;10089;47.876;8.346;2023-02-04T08:24:57;3.30;99.90
9699;DHT22;10089;47.876;8.346;2023-02-04T08:27:22;3.80;99.90
9699;DHT22;10089;47.876;8.346;2023-02-04T08:29:48;3.40;99.90
9699;DHT22;10089;47.876;8.346;2023-02-04T08:32:14;3.80;99.90
9699;DHT22;10089;47.876;8.346;2023-02-04T08:34:40;3.70;99.90
9699;DHT22;10089;47.876;8.346;2023-02-04T08:37:06;4.00;99.90
9699;DHT22;10089;47.876;8.346;2023-02-04T08:39:31;3.70;99.90
9699;DHT22;10089;47.876;8.346;2023-02-04T08:41:58;3.70;99.90
9699;DHT22;10089;47.876;8.346;2023-02-04T08:44:23;3.60;99.90
9699;DHT22;10089;47.876;8.346;2023-02-04T08:46:49;4.30;99.90
9699;DHT22;10089;47.876;8.346;2023-02-04T08:49:15;3.80;99.90
9699;DHT22;10089;47.876;8.346;2023-02-04T08:51:40;4.30;99.90
9699;DHT22;10089;47.876;8.346;2023-02-04T08:54:08;3.80;99.90
9699;DHT22;10089;47.876;8.346;2023-02-04T08:56:36;4.20;99.90
9699;DHT22;10089;47.876;8.346;2023-02-04T08:59:01;3.90;99.90
9699;DHT22;10089;47.876;8.346;2023-02-04T09:01:27;3.90;99.90
9699;DHT22;10089;47.876;8.346;2023-02-04T09:03:55;3.90;99.90
9699;DHT22;10089;47.876;8.346;2023-02-04T09:06:20;4.10;99.90
9699;DHT22;10089;47.876;8.346;2023-02-04T09:08:46;4.50;99.90
9699;DHT22;10089;47.876;8.346;2023-02-04T09:11:12;4.30;99.90
9699;DHT22;10089;47.876;8.346;2023-02-04T09:13:39;3.70;99.90
9699;DHT22;10089;47.876;8.346;2023-02-04T09:16:05;3.30;99.90
9699;DHT22;10089;47.876;8.346;2023-02-04T09:18:30;3.50;99.90
9699;DHT22;10089;47.876;8.346;2023-02-04T09:20:57;4.00;99.90
9699;DHT22;10089;47.876;8.346;2023-02-04T09:23:23;3.80;99.90
9699;DHT22;10089;47.876;8.346;2023-02-04T09:25:49;3.20;99.90
9699;DHT22;10089;47.876;8.346;2023-02-04T09:28:15;3.00;99.90
9699;DHT22;10089;47.876;8.346;2023-02-04T09:30:43;3.10;99.90
9699;DHT22;10089;47.876;8.346;2023-02-04T09:33:10;3.40;99.90
9699;DHT22;10089;47.876;8.346;2023-02-04T09:35:36;3.10;99.90
9699;DHT22;10089;47.876;8.346;2023-02-04T09:38:03;3.90;99.90
9699;DHT22;10089;47.876;8.346;2023-02-04T09:40:35;3.00;99.90
9699;DHT22;10089;47.876;8.346;2023-02-04T09:43:03;3.60;99.90
9699;DHT22;10089;47.876;8.346;2023-02-04T09:45:33;3.10;99.90
9699;DHT22;10089;47.876;8.346;2023-02-04T09:48:04;3.30;99.90
9699;DHT22;10089;47.876;8.346;2023-02-04T09:50:33;3.50;99.90
9699;DHT22;10089;47.876;8.346;2023-02-04T09:53:03;3.10;99.90
9699;DHT22;10089;47.876;8.346;2023-02-04T09:55:33;3.40;99.90
9699;DHT22;10089;47.876;8.346;2023-02-04T09:57:59;3.70;99.90
9699;DHT22;10089;47.876;8.346;2023-02-04T10:00:30;3.30;99.90
9699;DHT22;10089;47.876;8.346;2023-02-04T10:03:01;3.90;99.90
9699;DHT22;10089;47.876;8.346;2023-02-04T10:05:31;3.10;99.90
9699;DHT22;10089;47.876;8.346;2023-02-04T10:08:01;3.70;99.90
9699;DHT22;10089;47.876;8.346;2023-02-04T10:10:28;4.00;99.90
9699;DHT22;10089;47.876;8.346;2023-02-04T10:13:19;3.10;99.90
9699;DHT22;10089;47.876;8.346;2023-02-04T10:15:46;3.00;99.90
9699;DHT22;10089;47.876;8.346;2023-02-04T10:18:21;3.90;99.90
9699;DHT22;10089;47.876;8.346;2023-02-04T10:20:49;3.40;99.90
9699;DHT22;10089;47.876;8.346;2023-02-04T10:23:19;3.60;99.90
9699;DHT22;10089;47.876;8.346;2023-02-04T10:25:46;3.50;99.90
9699;DHT22;10089;47.876;8.346;2023-02-04T10:28:14;1.70;99.90
9699;DHT22;10089;47.876;8.346;2023-02-04T10:30:41;3.10;99.90
9699;DHT22;10089;47.876;8.346;2023-02-04T10:33:24;3.90;99.90
9699;DHT22;10089;47.876;8.346;2023-02-04T10:35:51;4.00;99.90
9699;DHT22;10089;47.876;8.346;2023-02-04T10:38:17;3.80;99.90
9699;DHT22;10089;47.876;8.346;2023-02-04T10:40:43;3.30;99.90
9699;DHT22;10089;47.876;8.346;2023-02-04T10:43:14;3.40;99.90
9699;DHT22;10089;47.876;8.346;2023-02-04T10:45:45;3.60;99.90
9699;DHT22;10089;47.876;8.346;2023-02-04T10:48:18;4.10;99.90
9699;DHT22;10089;47.876;8.346;2023-02-04T10:51:18;3.60;99.90
9699;DHT22;10089;47.876;8.346;2023-02-04T10:53:43;3.60;99.90
9699;DHT22;10089;47.876;8.346;2023-02-04T10:56:28;3.60;99.90
9699;DHT22;10089;47.876;8.346;2023-02-04T10:58:53;3.80;99.90
9699;DHT22;10089;47.876;8.346;2023-02-04T11:01:19;4.00;99.90
9699;DHT22;10089;47.876;8.346;2023-02-04T11:03:45;3.80;99.90
9699;DHT22;10089;47.876;8.346;2023-02-04T11:06:23;3.70;99.90
9699;DHT22;10089;47.876;8.346;2023-02-04T11:08:49;4.60;99.90
9699;DHT22;10089;47.876;8.346;2023-02-04T11:19:08;4.00;99.90
9699;DHT22;10089;47.876;8.346;2023-02-04T11:26:49;4.30;99.90
9699;DHT22;10089;47.876;8.346;2023-02-04T11:29:31;4.40;99.90
9699;DHT22;10089;47.876;8.346;2023-02-04T11:32:04;4.30;99.90
9699;DHT22;10089;47.876;8.346;2023-02-04T11:34:31;4.40;99.90
9699;DHT22;10089;47.876;8.346;2023-02-04T11:37:15;4.40;99.90
9699;DHT22;10089;47.876;8.346;2023-02-04T11:39:44;4.30;99.90
9699;DHT22;10089;47.876;8.346;2023-02-04T11:42:30;5.00;99.90
9699;DHT22;10089;47.876;8.346;2023-02-04T11:45:04;4.20;99.90
9699;DHT22;10089;47.876;8.346;2023-02-04T11:47:34;4.20;99.90
9699;DHT22;10089;47.876;8.346;2023-02-04T11:50:12;4.30;99.90
9699;DHT22;10089;47.876;8.346;2023-02-04T11:52:39;4.40;99.90
9699;DHT22;10089;47.876;8.346;2023-02-04T11:55:05;4.90;99.90
9699;DHT22;10089;47.876;8.346;2023-02-04T11:57:38;4.50;99.90
9699;DHT22;10089;47.876;8.346;2023-02-04T12:00:05;4.50;99.90
9699;DHT22;10089;47.876;8.346;2023-02-04T12:02:41;4.50;99.90
9699;DHT22;10089;47.876;8.346;2023-02-04T12:05:14;4.60;99.90
9699;DHT22;10089;47.876;8.346;2023-02-04T12:07:40;4.60;99.90
9699;DHT22;10089;47.876;8.346;2023-02-04T12:10:12;4.70;99.90
9699;DHT22;10089;47.876;8.346;2023-02-04T12:12:51;4.60;99.90
9699;DHT22;10089;47.876;8.346;2023-02-04T12:15:22;4.80;99.90
9699;DHT22;10089;47.876;8.346;2023-02-04T12:18:02;4.90;99.90
9699;DHT22;10089;47.876;8.346;2023-02-04T12:20:28;4.90;99.90
9699;DHT22;10089;47.876;8.346;2023-02-04T12:22:53;4.90;99.90
9699;DHT22;10089;47.876;8.346;2023-02-04T12:25:19;4.70;78.40
9699;DHT22;10089;47.876;8.346;2023-02-04T12:27:45;4.80;99.90
9699;DHT22;10089;47.876;8.346;2023-02-04T12:30:11;5.20;99.90
9699;DHT22;10089;47.876;8.346;2023-02-04T12:32:37;4.90;99.90
9699;DHT22;10089;47.876;8.346;2023-02-04T12:35:03;5.10;25.50
9699;DHT22;10089;47.876;8.346;2023-02-04T12:37:30;5.00;99.90
9699;DHT22;10089;47.876;8.346;2023-02-04T12:39:56;4.60;99.90
9699;DHT22;10089;47.876;8.346;2023-02-04T12:42:22;4.70;99.90
9699;DHT22;10089;47.876;8.346;2023-02-04T12:44:47;4.50;99.90
9699;DHT22;10089;47.876;8.346;2023-02-04T12:47:13;4.50;99.90
9699;DHT22;10089;47.876;8.346;2023-02-04T12:49:39;4.70;99.90
9699;DHT22;10089;47.876;8.346;2023-02-04T12:52:05;5.20;99.90
9699;DHT22;10089;47.876;8.346;2023-02-04T12:54:30;4.90;99.90
9699;DHT22;10089;47.876;8.346;2023-02-04T12:56:56;4.30;99.90
9699;DHT22;10089;47.876;8.346;2023-02-04T12:59:27;4.10;99.90
9699;DHT22;10089;47.876;8.346;2023-02-04T13:01:52;4.20;99.90
9699;DHT22;10089;47.876;8.346;2023-02-04T13:04:18;4.50;99.90
9699;DHT22;10089;47.876;8.346;2023-02-04T13:06:44;4.50;99.90
9699;DHT22;10089;47.876;8.346;2023-02-04T13:09:10;4.00;99.90
9699;DHT22;10089;47.876;8.346;2023-02-04T13:11:35;4.20;99.90
9699;DHT22;10089;47.876;8.346;2023-02-04T13:14:01;4.70;99.90
9699;DHT22;10089;47.876;8.346;2023-02-04T13:16:26;4.10;99.90
9699;DHT22;10089;47.876;8.346;2023-02-04T13:18:52;4.30;99.90
9699;DHT22;10089;47.876;8.346;2023-02-04T13:21:18;4.30;99.90
9699;DHT22;10089;47.876;8.346;2023-02-04T13:23:44;4.20;99.90
9699;DHT22;10089;47.876;8.346;2023-02-04T13:26:09;5.30;99.90
9699;DHT22;10089;47.876;8.346;2023-02-04T13:28:36;4.30;73.80
9699;DHT22;10089;47.876;8.346;2023-02-04T13:31:01;4.40;31.40
9699;DHT22;10089;47.876;8.346;2023-02-04T13:33:27;4.40;25.80
9699;DHT22;10089;47.876;8.346;2023-02-04T13:35:53;4.50;9.60
9699;DHT22;10089;47.876;8.346;2023-02-04T13:38:18;4.80;24.70
9699;DHT22;10089;47.876;8.346;2023-02-04T13:40:44;4.70;1.00
9699;DHT22;10089;47.876;8.346;2023-02-04T13:43:10;4.30;1.00
9699;DHT22;10089;47.876;8.346;2023-02-04T13:45:35;4.90;1.00
9699;DHT22;10089;47.876;8.346;2023-02-04T13:48:01;4.20;1.00
9699;DHT22;10089;47.876;8.346;2023-02-04T13:50:27;4.20;20.80
9699;DHT22;10089;47.876;8.346;2023-02-04T13:52:53;4.90;1.00
9699;DHT22;10089;47.876;8.346;2023-02-04T13:55:20;4.20;1.00
9699;DHT22;10089;47.876;8.346;2023-02-04T13:57:45;4.00;1.00
9699;DHT22;10089;47.876;8.346;2023-02-04T14:00:11;4.20;14.20
9699;DHT22;10089;47.876;8.346;2023-02-04T14:02:37;4.30;99.90
9699;DHT22;10089;47.876;8.346;2023-02-04T14:05:03;4.40;99.90
9699;DHT22;10089;47.876;8.346;2023-02-04T14:07:29;4.30;8.60
9699;DHT22;10089;47.876;8.346;2023-02-04T14:09:55;4.20;13.50
9699;DHT22;10089;47.876;8.346;2023-02-04T14:12:21;4.30;20.50
9699;DHT22;10089;47.876;8.346;2023-02-04T14:14:46;4.90;1.00
9699;DHT22;10089;47.876;8.346;2023-02-04T14:17:12;4.40;1.00
9699;DHT22;10089;47.876;8.346;2023-02-04T14:19:38;4.60;1.00
9699;DHT22;10089;47.876;8.346;2023-02-04T14:22:03;5.00;1.00
9699;DHT22;10089;47.876;8.346;2023-02-04T14:24:29;4.10;69.60
9699;DHT22;10089;47.876;8.346;2023-02-04T14:26:55;4.80;99.90
9699;DHT22;10089;47.876;8.346;2023-02-04T14:29:20;4.00;99.90
9699;DHT22;10089;47.876;8.346;2023-02-04T14:31:46;3.90;99.90
9699;DHT22;10089;47.876;8.346;2023-02-04T14:34:12;4.40;99.90
9699;DHT22;10089;47.876;8.346;2023-02-04T14:36:38;3.80;99.90
9699;DHT22;10089;47.876;8.346;2023-02-04T14:39:03;3.80;99.90
9699;DHT22;10089;47.876;8.346;2023-02-04T14:41:29;3.90;99.90
9699;DHT22;10089;47.876;8.346;2023-02-04T14:43:56;4.00;99.90
9699;DHT22;10089;47.876;8.346;2023-02-04T14:46:21;3.80;99.90
9699;DHT22;10089;47.876;8.346;2023-02-04T14:48:47;3.80;99.90
9699;DHT22;10089;47.876;8.346;2023-02-04T14:51:16;3.70;99.90
9699;DHT22;10089;47.876;8.346;2023-02-04T14:53:42;3.80;99.90
9699;DHT22;10089;47.876;8.346;2023-02-04T14:56:08;3.90;99.90
9699;DHT22;10089;47.876;8.346;2023-02-04T14:58:33;3.80;99.90
9699;DHT22;10089;47.876;8.346;2023-02-04T15:00:59;4.00;99.90
9699;DHT22;10089;47.876;8.346;2023-02-04T15:03:25;3.80;99.90
9699;DHT22;10089;47.876;8.346;2023-02-04T15:05:51;3.80;99.90
9699;DHT22;10089;47.876;8.346;2023-02-04T15:08:17;4.60;99.90
9699;DHT22;10089;47.876;8.346;2023-02-04T15:10:43;4.10;99.90
9699;DHT22;10089;47.876;8.346;2023-02-04T15:13:12;3.70;99.90
9699;DHT22;10089;47.876;8.346;2023-02-04T15:15:38;4.80;99.90
9699;DHT22;10089;47.876;8.346;2023-02-04T15:18:03;3.80;99.90
9699;DHT22;10089;47.876;8.346;2023-02-04T15:20:29;3.50;99.90
9699;DHT22;10089;47.876;8.346;2023-02-04T15:22:55;3.60;99.90
9699;DHT22;10089;47.876;8.346;2023-02-04T15:25:22;3.90;99.90
9699;DHT22;10089;47.876;8.346;2023-02-04T15:27:48;4.00;99.90
9699;DHT22;10089;47.876;8.346;2023-02-04T15:30:14;4.30;99.90
9699;DHT22;10089;47.876;8.346;2023-02-04T15:32:40;3.70;99.90
9699;DHT22;10089;47.876;8.346;2023-02-04T15:35:07;3.60;99.90
9699;DHT22;10089;47.876;8.346;2023-02-04T15:37:34;3.50;99.90
9699;DHT22;10089;47.876;8.346;2023-02-04T15:39:59;3.50;99.90
9699;DHT22;10089;47.876;8.346;2023-02-04T15:42:25;3.30;99.90
9699;DHT22;10089;47.876;8.346;2023-02-04T15:44:51;3.30;99.90
9699;DHT22;10089;47.876;8.346;2023-02-04T15:47:17;3.30;99.90
9699;DHT22;10089;47.876;8.346;2023-02-04T15:49:44;3.20;99.90
9699;DHT22;10089;47.876;8.346;2023-02-04T15:52:10;3.30;99.90
9699;DHT22;10089;47.876;8.346;2023-02-04T15:54:36;3.30;99.90
9699;DHT22;10089;47.876;8.346;2023-02-04T15:57:02;3.60;99.90
9699;DHT22;10089;47.876;8.346;2023-02-04T15:59:28;3.20;99.90
9699;DHT22;10089;47.876;8.346;2023-02-04T16:01:53;3.20;99.90
9699;DHT22;10089;47.876;8.346;2023-02-04T16:04:19;3.30;99.90
9699;DHT22;10089;47.876;8.346;2023-02-04T16:06:45;3.00;99.90
9699;DHT22;10089;47.876;8.346;2023-02-04T16:09:11;3.20;99.90
9699;DHT22;10089;47.876;8.346;2023-02-04T16:11:36;3.10;99.90
9699;DHT22;10089;47.876;8.346;2023-02-04T16:14:04;3.30;99.90
9699;DHT22;10089;47.876;8.346;2023-02-04T16:16:30;3.00;99.90